sensor_id;sensor_type;location;lat;lon;timestamp;pressure;altitude;pressure_sealevel;temperature;humidity
73085;BME280;62974;49.460;10.892;2023-01-15T00:00:07;96616.50;;;6.83;97.43
73085;BME280;62974;49.460;10.892;2023-01-15T00:02:34;96620.81;;;6.84;97.42
73085;BME280;62974;49.460;10.892;2023-01-15T00:05:04;96616.69;;;6.82;97.69
73085;BME280;62974;49.460;10.892;2023-01-15T00:07:32;96609.09;;;6.85;96.90
73085;BME280;62974;49.460;10.892;2023-01-15T00:09:59;96595.75;;;6.85;97.07
73085;BME280;62974;49.460;10.892;2023-01-15T00:12:27;96588.78;;;6.84;97.22
73085;BME280;62974;49.460;10.892;2023-01-15T00:14:54;96591.47;;;6.84;96.98
73085;BME280;62974;49.460;10.892;2023-01-15T00:17:23;96585.91;;;6.79;97.40
73085;BME280;62974;49.460;10.892;2023-01-15T00:19:51;96586.72;;;6.80;96.98
73085;BME280;62974;49.460;10.892;2023-01-15T00:22:20;96588.16;;;6.82;96.89
73085;BME280;62974;49.460;10.892;2023-01-15T00:24:47;96593.50;;;6.82;96.78
73085;BME280;62974;49.460;10.892;2023-01-15T00:27:34;96591.03;;;6.81;96.95
73085;BME280;62974;49.460;10.892;2023-01-15T00:30:11;96586.13;;;6.84;97.24
73085;BME280;62974;49.460;10.892;2023-01-15T00:32:40;96585.91;;;6.86;97.25
73085;BME280;62974;49.460;10.892;2023-01-15T00:35:10;96574.41;;;6.92;96.38
73085;BME280;62974;49.460;10.892;2023-01-15T00:37:40;96577.47;;;6.95;96.68
73085;BME280;62974;49.460;10.892;2023-01-15T00:40:08;96572.13;;;6.95;96.57
73085;BME280;62974;49.460;10.892;2023-01-15T00:42:36;96569.88;;;6.99;96.78
73085;BME280;62974;49.460;10.892;2023-01-15T00:45:04;96560.84;;;6.93;96.97
73085;BME280;62974;49.460;10.892;2023-01-15T00:47:35;96564.56;;;6.92;96.72
73085;BME280;62974;49.460;10.892;2023-01-15T00:50:04;96560.66;;;6.95;96.29
73085;BME280;62974;49.460;10.892;2023-01-15T00:52:32;96556.94;;;6.96;96.77
73085;BME280;62974;49.460;10.892;2023-01-15T00:55:00;96552.00;;;7.06;96.84
73085;BME280;62974;49.460;10.892;2023-01-15T00:57:28;96547.69;;;6.98;97.11
73085;BME280;62974;49.460;10.892;2023-01-15T00:59:56;96550.38;;;6.98;96.95
73085;BME280;62974;49.460;10.892;2023-01-15T01:02:23;96543.38;;;6.97;97.08
73085;BME280;62974;49.460;10.892;2023-01-15T01:04:51;96552.63;;;7.01;97.04
73085;BME280;62974;49.460;10.892;2023-01-15T01:07:19;96539.66;;;7.12;96.93
73085;BME280;62974;49.460;10.892;2023-01-15T01:09:47;96539.66;;;7.12;96.86
73085;BME280;62974;49.460;10.892;2023-01-15T01:12:16;96536.19;;;7.04;97.22
73085;BME280;62974;49.460;10.892;2023-01-15T01:14:43;96540.88;;;7.09;97.18
73085;BME280;62974;49.460;10.892;2023-01-15T01:17:10;96540.88;;;7.09;97.23
73085;BME280;62974;49.460;10.892;2023-01-15T01:19:40;96548.06;;;7.15;97.47
73085;BME280;62974;49.460;10.892;2023-01-15T01:22:07;96538.22;;;7.16;97.59
73085;BME280;62974;49.460;10.892;2023-01-15T01:24:35;96535.13;;;7.19;97.13
73085;BME280;62974;49.460;10.892;2023-01-15T01:27:02;96531.63;;;7.18;97.61
73085;BME280;62974;49.460;10.892;2023-01-15T01:29:31;96531.63;;;7.18;97.80
73085;BME280;62974;49.460;10.892;2023-01-15T01:31:58;96527.94;;;7.19;98.12
73085;BME280;62974;49.460;10.892;2023-01-15T01:34:26;96539.03;;;7.16;97.89
73085;BME280;62974;49.460;10.892;2023-01-15T01:36:53;96519.94;;;7.19;97.76
73085;BME280;62974;49.460;10.892;2023-01-15T01:39:21;96524.44;;;7.19;97.85
73085;BME280;62974;49.460;10.892;2023-01-15T01:41:48;96510.06;;;7.20;97.43
73085;BME280;62974;49.460;10.892;2023-01-15T01:47:24;96497.50;;;7.27;97.71
73085;BME280;62974;49.460;10.892;2023-01-15T01:49:56;96497.72;;;7.25;97.86
73085;BME280;62974;49.460;10.892;2023-01-15T01:52:27;96483.72;;;7.36;97.84
73085;BME280;62974;49.460;10.892;2023-01-15T01:54:56;96484.97;;;7.27;97.69
73085;BME280;62974;49.460;10.892;2023-01-15T01:57:24;96479.00;;;7.32;97.80
73085;BME280;62974;49.460;10.892;2023-01-15T01:59:52;96473.47;;;7.27;97.84
73085;BME280;62974;49.460;10.892;2023-01-15T02:02:23;96476.16;;;7.27;98.37
73085;BME280;62974;49.460;10.892;2023-01-15T02:04:51;96467.72;;;7.30;98.64
73085;BME280;62974;49.460;10.892;2023-01-15T02:07:19;96461.34;;;7.31;98.16
73085;BME280;62974;49.460;10.892;2023-01-15T02:09:46;96464.00;;;7.31;98.50
73085;BME280;62974;49.460;10.892;2023-01-15T02:12:21;96458.25;;;7.34;98.10
73085;BME280;62974;49.460;10.892;2023-01-15T02:14:54;96454.97;;;7.32;97.97
73085;BME280;62974;49.460;10.892;2023-01-15T02:17:32;96458.88;;;7.36;98.15
73085;BME280;62974;49.460;10.892;2023-01-15T02:20:15;96446.94;;;7.38;97.68
73085;BME280;62974;49.460;10.892;2023-01-15T02:22:55;96446.06;;;7.44;97.66
73085;BME280;62974;49.460;10.892;2023-01-15T02:25:31;96444.22;;;7.45;97.48
73085;BME280;62974;49.460;10.892;2023-01-15T02:28:06;96450.81;;;7.42;97.38
73085;BME280;62974;49.460;10.892;2023-01-15T02:30:40;96435.16;;;7.46;97.38
73085;BME280;62974;49.460;10.892;2023-01-15T02:33:11;96429.00;;;7.45;97.52
73085;BME280;62974;49.460;10.892;2023-01-15T02:35:44;96425.25;;;7.53;96.72
73085;BME280;62974;49.460;10.892;2023-01-15T02:38:17;96423.06;;;7.43;96.86
73085;BME280;62974;49.460;10.892;2023-01-15T02:40:49;96425.09;;;7.48;96.56
73085;BME280;62974;49.460;10.892;2023-01-15T02:43:21;96421.31;;;7.62;95.88
73085;BME280;62974;49.460;10.892;2023-01-15T02:45:52;96420.56;;;7.48;96.15
73085;BME280;62974;49.460;10.892;2023-01-15T02:48:24;96420.16;;;7.45;96.11
73085;BME280;62974;49.460;10.892;2023-01-15T02:50:58;96414.13;;;7.63;95.24
73085;BME280;62974;49.460;10.892;2023-01-15T02:53:28;96406.78;;;7.51;95.12
73085;BME280;62974;49.460;10.892;2023-01-15T02:56:01;96401.44;;;7.51;94.96
73085;BME280;62974;49.460;10.892;2023-01-15T02:58:34;96404.72;;;7.53;94.75
73085;BME280;62974;49.460;10.892;2023-01-15T03:01:07;96395.28;;;7.51;94.71
73085;BME280;62974;49.460;10.892;2023-01-15T03:03:40;96387.00;;;7.59;94.35
73085;BME280;62974;49.460;10.892;2023-01-15T03:06:15;96391.53;;;7.59;94.26
73085;BME280;62974;49.460;10.892;2023-01-15T03:08:44;96387.22;;;7.57;94.11
73085;BME280;62974;49.460;10.892;2023-01-15T03:11:14;96384.94;;;7.61;93.66
73085;BME280;62974;49.460;10.892;2023-01-15T03:13:49;96390.25;;;7.68;93.09
73085;BME280;62974;49.460;10.892;2023-01-15T03:16:22;96383.69;;;7.64;93.29
73085;BME280;62974;49.460;10.892;2023-01-15T03:19:08;96386.31;;;7.70;92.86
73085;BME280;62974;49.460;10.892;2023-01-15T03:21:39;96385.94;;;7.67;92.76
73085;BME280;62974;49.460;10.892;2023-01-15T03:24:11;96388.44;;;7.62;92.96
73085;BME280;62974;49.460;10.892;2023-01-15T03:26:40;96386.13;;;7.65;92.80
73085;BME280;62974;49.460;10.892;2023-01-15T03:29:09;96382.22;;;7.68;92.86
73085;BME280;62974;49.460;10.892;2023-01-15T03:31:39;96383.81;;;7.75;92.48
73085;BME280;62974;49.460;10.892;2023-01-15T03:34:07;96388.28;;;7.81;91.89
73085;BME280;62974;49.460;10.892;2023-01-15T03:36:36;96387.25;;;7.82;92.06
73085;BME280;62974;49.460;10.892;2023-01-15T03:39:04;96392.41;;;7.77;92.67
73085;BME280;62974;49.460;10.892;2023-01-15T03:41:39;96385.78;;;7.86;91.75
73085;BME280;62974;49.460;10.892;2023-01-15T03:44:20;96382.28;;;7.86;92.21
73085;BME280;62974;49.460;10.892;2023-01-15T03:46:57;96388.25;;;7.88;92.70
73085;BME280;62974;49.460;10.892;2023-01-15T03:49:33;96390.63;;;7.96;92.67
73085;BME280;62974;49.460;10.892;2023-01-15T03:52:07;96376.94;;;7.86;93.48
73085;BME280;62974;49.460;10.892;2023-01-15T03:54:42;96381.00;;;7.88;93.40
73085;BME280;62974;49.460;10.892;2023-01-15T03:57:18;96375.25;;;7.91;93.44
73085;BME280;62974;49.460;10.892;2023-01-15T03:59:51;96380.59;;;7.91;93.99
73085;BME280;62974;49.460;10.892;2023-01-15T04:02:20;96377.75;;;7.86;95.28
73085;BME280;62974;49.460;10.892;2023-01-15T04:04:50;96371.38;;;7.87;95.92
73085;BME280;62974;49.460;10.892;2023-01-15T04:07:19;96374.31;;;7.79;96.71
73085;BME280;62974;49.460;10.892;2023-01-15T04:09:47;96368.97;;;7.79;97.39
73085;BME280;62974;49.460;10.892;2023-01-15T04:12:15;96358.56;;;7.71;98.28
73085;BME280;62974;49.460;10.892;2023-01-15T04:14:42;96371.78;;;7.84;99.12
73085;BME280;62974;49.460;10.892;2023-01-15T04:17:11;96362.06;;;7.72;99.08
73085;BME280;62974;49.460;10.892;2023-01-15T04:19:38;96367.81;;;7.69;100.00
73085;BME280;62974;49.460;10.892;2023-01-15T04:22:06;96363.72;;;7.66;100.00
73085;BME280;62974;49.460;10.892;2023-01-15T04:24:33;96360.63;;;7.69;100.00
73085;BME280;62974;49.460;10.892;2023-01-15T04:27:01;96367.44;;;7.65;100.00
73085;BME280;62974;49.460;10.892;2023-01-15T04:29:28;96357.19;;;7.62;100.00
73085;BME280;62974;49.460;10.892;2023-01-15T04:31:56;96364.19;;;7.63;100.00
73085;BME280;62974;49.460;10.892;2023-01-15T04:34:26;96357.81;;;7.64;100.00
73085;BME280;62974;49.460;10.892;2023-01-15T04:36:54;96342.19;;;7.61;100.00
73085;BME280;62974;49.460;10.892;2023-01-15T04:39:22;96342.19;;;7.61;100.00
73085;BME280;62974;49.460;10.892;2023-01-15T04:41:49;96325.75;;;7.64;100.00
73085;BME280;62974;49.460;10.892;2023-01-15T04:44:35;96328.00;;;7.61;100.00
73085;BME280;62974;49.460;10.892;2023-01-15T04:47:03;96324.94;;;7.64;100.00
73085;BME280;62974;49.460;10.892;2023-01-15T04:49:33;96329.22;;;7.65;100.00
73085;BME280;62974;49.460;10.892;2023-01-15T04:52:01;96323.72;;;7.60;100.00
73085;BME280;62974;49.460;10.892;2023-01-15T04:54:28;96315.28;;;7.63;100.00
73085;BME280;62974;49.460;10.892;2023-01-15T04:56:56;96299.41;;;7.68;100.00
73085;BME280;62974;49.460;10.892;2023-01-15T04:59:26;96296.13;;;7.66;100.00
73085;BME280;62974;49.460;10.892;2023-01-15T05:01:53;96291.22;;;7.63;100.00
73085;BME280;62974;49.460;10.892;2023-01-15T05:04:33;96291.16;;;7.69;100.00
73085;BME280;62974;49.460;10.892;2023-01-15T05:07:01;96288.28;;;7.71;100.00
73085;BME280;62974;49.460;10.892;2023-01-15T05:09:29;96273.53;;;7.68;100.00
73085;BME280;62974;49.460;10.892;2023-01-15T05:11:59;96277.75;;;7.76;100.00
73085;BME280;62974;49.460;10.892;2023-01-15T05:14:27;96261.94;;;7.74;100.00
73085;BME280;62974;49.460;10.892;2023-01-15T05:16:54;96266.84;;;7.77;100.00
73085;BME280;62974;49.460;10.892;2023-01-15T05:19:22;96251.25;;;7.74;100.00
73085;BME280;62974;49.460;10.892;2023-01-15T05:21:50;96250.81;;;7.77;100.00
73085;BME280;62974;49.460;10.892;2023-01-15T05:24:18;96244.78;;;7.82;100.00
73085;BME280;62974;49.460;10.892;2023-01-15T05:26:46;96250.50;;;7.85;100.00
73085;BME280;62974;49.460;10.892;2023-01-15T05:29:13;96243.75;;;7.83;100.00
73085;BME280;62974;49.460;10.892;2023-01-15T05:31:41;96252.53;;;7.90;100.00
73085;BME280;62974;49.460;10.892;2023-01-15T05:34:11;96252.06;;;7.93;100.00
73085;BME280;62974;49.460;10.892;2023-01-15T05:36:39;96242.00;;;7.95;100.00
73085;BME280;62974;49.460;10.892;2023-01-15T05:39:08;96251.78;;;8.01;100.00
73085;BME280;62974;49.460;10.892;2023-01-15T05:41:36;96245.03;;;7.98;100.00
73085;BME280;62974;49.460;10.892;2023-01-15T05:44:19;96250.00;;;7.95;100.00
73085;BME280;62974;49.460;10.892;2023-01-15T05:46:47;96251.72;;;8.08;100.00
73085;BME280;62974;49.460;10.892;2023-01-15T05:49:17;96250.91;;;8.07;100.00
73085;BME280;62974;49.460;10.892;2023-01-15T05:51:45;96256.09;;;8.02;100.00
73085;BME280;62974;49.460;10.892;2023-01-15T05:54:16;96255.66;;;8.05;100.00
73085;BME280;62974;49.460;10.892;2023-01-15T05:56:45;96262.72;;;7.99;100.00
73085;BME280;62974;49.460;10.892;2023-01-15T05:59:13;96252.16;;;8.04;100.00
73085;BME280;62974;49.460;10.892;2023-01-15T06:01:41;96259.22;;;7.99;100.00
73085;BME280;62974;49.460;10.892;2023-01-15T06:04:10;96265.38;;;7.99;100.00
73085;BME280;62974;49.460;10.892;2023-01-15T06:06:40;96261.88;;;7.99;100.00
73085;BME280;62974;49.460;10.892;2023-01-15T06:09:09;96269.66;;;8.00;100.00
73085;BME280;62974;49.460;10.892;2023-01-15T06:11:38;96265.00;;;7.96;100.00
73085;BME280;62974;49.460;10.892;2023-01-15T06:14:09;96285.34;;;7.97;100.00
73085;BME280;62974;49.460;10.892;2023-01-15T06:16:38;96346.44;;;7.93;100.00
73085;BME280;62974;49.460;10.892;2023-01-15T06:19:08;96359.00;;;7.68;100.00
73085;BME280;62974;49.460;10.892;2023-01-15T06:21:36;96361.13;;;7.60;100.00
73085;BME280;62974;49.460;10.892;2023-01-15T06:24:04;96350.09;;;7.49;100.00
73085;BME280;62974;49.460;10.892;2023-01-15T06:26:32;96350.34;;;7.41;100.00
73085;BME280;62974;49.460;10.892;2023-01-15T06:29:01;96356.56;;;7.35;100.00
73085;BME280;62974;49.460;10.892;2023-01-15T06:31:29;96357.00;;;7.32;100.00
73085;BME280;62974;49.460;10.892;2023-01-15T06:33:57;96372.03;;;7.27;100.00
73085;BME280;62974;49.460;10.892;2023-01-15T06:36:26;96354.59;;;7.24;100.00
73085;BME280;62974;49.460;10.892;2023-01-15T06:38:54;96375.13;;;7.24;100.00
73085;BME280;62974;49.460;10.892;2023-01-15T06:41:23;96383.97;;;7.18;100.00
73085;BME280;62974;49.460;10.892;2023-01-15T06:44:12;96391.03;;;7.05;100.00
73085;BME280;62974;49.460;10.892;2023-01-15T06:47:01;96417.13;;;6.97;100.00
73085;BME280;62974;49.460;10.892;2023-01-15T06:49:49;96406.22;;;7.05;100.00
73085;BME280;62974;49.460;10.892;2023-01-15T06:52:17;96419.09;;;6.70;100.00
73085;BME280;62974;49.460;10.892;2023-01-15T06:54:45;96409.44;;;6.76;100.00
73085;BME280;62974;49.460;10.892;2023-01-15T06:57:12;96408.53;;;6.95;100.00
73085;BME280;62974;49.460;10.892;2023-01-15T06:59:41;96406.22;;;6.60;100.00
73085;BME280;62974;49.460;10.892;2023-01-15T07:02:09;96408.47;;;6.50;100.00
73085;BME280;62974;49.460;10.892;2023-01-15T07:04:37;96417.81;;;6.86;100.00
73085;BME280;62974;49.460;10.892;2023-01-15T07:07:07;96430.19;;;6.67;100.00
73085;BME280;62974;49.460;10.892;2023-01-15T07:09:35;96428.03;;;6.18;100.00
73085;BME280;62974;49.460;10.892;2023-01-15T07:12:03;96439.91;;;6.29;100.00
73085;BME280;62974;49.460;10.892;2023-01-15T07:14:30;96440.31;;;6.26;100.00
73085;BME280;62974;49.460;10.892;2023-01-15T07:16:59;96440.69;;;6.42;100.00
73085;BME280;62974;49.460;10.892;2023-01-15T07:19:27;96436.66;;;5.87;100.00
73085;BME280;62974;49.460;10.892;2023-01-15T07:21:54;96446.88;;;5.84;100.00
73085;BME280;62974;49.460;10.892;2023-01-15T07:24:22;96461.44;;;5.88;100.00
73085;BME280;62974;49.460;10.892;2023-01-15T07:26:49;96459.38;;;5.90;100.00
73085;BME280;62974;49.460;10.892;2023-01-15T07:29:17;96472.06;;;5.81;100.00
73085;BME280;62974;49.460;10.892;2023-01-15T07:31:45;96460.63;;;6.13;100.00
73085;BME280;62974;49.460;10.892;2023-01-15T07:34:13;96454.84;;;5.77;100.00
73085;BME280;62974;49.460;10.892;2023-01-15T07:36:41;96463.44;;;5.79;100.00
73085;BME280;62974;49.460;10.892;2023-01-15T07:39:10;96479.63;;;5.71;100.00
73085;BME280;62974;49.460;10.892;2023-01-15T07:41:38;96493.56;;;5.80;100.00
73085;BME280;62974;49.460;10.892;2023-01-15T07:44:23;96499.75;;;5.93;100.00
73085;BME280;62974;49.460;10.892;2023-01-15T07:47:14;96520.81;;;5.75;100.00
73085;BME280;62974;49.460;10.892;2023-01-15T07:50:03;96517.91;;;5.63;100.00
73085;BME280;62974;49.460;10.892;2023-01-15T07:52:31;96533.88;;;5.57;100.00
73085;BME280;62974;49.460;10.892;2023-01-15T07:54:59;96535.72;;;5.63;100.00
73085;BME280;62974;49.460;10.892;2023-01-15T07:57:27;96544.91;;;5.54;100.00
73085;BME280;62974;49.460;10.892;2023-01-15T07:59:54;96554.41;;;5.76;100.00
73085;BME280;62974;49.460;10.892;2023-01-15T08:02:22;96567.38;;;5.32;100.00
73085;BME280;62974;49.460;10.892;2023-01-15T08:04:49;96571.34;;;5.08;100.00
73085;BME280;62974;49.460;10.892;2023-01-15T08:07:18;96576.50;;;5.16;100.00
73085;BME280;62974;49.460;10.892;2023-01-15T08:09:46;96579.59;;;5.19;100.00
73085;BME280;62974;49.460;10.892;2023-01-15T08:12:13;96586.41;;;5.29;100.00
73085;BME280;62974;49.460;10.892;2023-01-15T08:15:00;96590.31;;;4.98;100.00
73085;BME280;62974;49.460;10.892;2023-01-15T08:17:42;96594.84;;;5.04;100.00
73085;BME280;62974;49.460;10.892;2023-01-15T08:20:13;96602.41;;;5.01;100.00
73085;BME280;62974;49.460;10.892;2023-01-15T08:22:43;96607.09;;;4.71;100.00
73085;BME280;62974;49.460;10.892;2023-01-15T08:25:14;96623.13;;;4.78;100.00
73085;BME280;62974;49.460;10.892;2023-01-15T08:27:42;96614.19;;;4.85;100.00
73085;BME280;62974;49.460;10.892;2023-01-15T08:30:11;96618.16;;;4.74;100.00
73085;BME280;62974;49.460;10.892;2023-01-15T08:32:39;96630.34;;;4.62;100.00
73085;BME280;62974;49.460;10.892;2023-01-15T08:35:08;96623.09;;;4.29;100.00
73085;BME280;62974;49.460;10.892;2023-01-15T08:37:35;96627.69;;;4.62;100.00
73085;BME280;62974;49.460;10.892;2023-01-15T08:40:05;96636.88;;;4.39;100.00
73085;BME280;62974;49.460;10.892;2023-01-15T08:42:33;96641.50;;;4.51;100.00
73085;BME280;62974;49.460;10.892;2023-01-15T08:45:01;96641.16;;;4.33;100.00
73085;BME280;62974;49.460;10.892;2023-01-15T08:47:28;96642.72;;;4.28;100.00
73085;BME280;62974;49.460;10.892;2023-01-15T08:49:57;96639.78;;;4.22;100.00
73085;BME280;62974;49.460;10.892;2023-01-15T08:52:25;96645.38;;;4.49;100.00
73085;BME280;62974;49.460;10.892;2023-01-15T08:54:52;96657.13;;;5.44;100.00
73085;BME280;62974;49.460;10.892;2023-01-15T08:57:21;96650.31;;;4.52;100.00
73085;BME280;62974;49.460;10.892;2023-01-15T08:59:48;96652.56;;;4.55;100.00
73085;BME280;62974;49.460;10.892;2023-01-15T09:02:16;96655.03;;;4.78;100.00
73085;BME280;62974;49.460;10.892;2023-01-15T09:04:43;96652.22;;;4.37;100.00
73085;BME280;62974;49.460;10.892;2023-01-15T09:07:11;96661.94;;;4.72;100.00
73085;BME280;62974;49.460;10.892;2023-01-15T09:09:38;96666.72;;;4.83;100.00
73085;BME280;62974;49.460;10.892;2023-01-15T09:12:06;96668.34;;;5.05;100.00
73085;BME280;62974;49.460;10.892;2023-01-15T09:14:35;96678.41;;;5.44;100.00
73085;BME280;62974;49.460;10.892;2023-01-15T09:17:22;96678.13;;;4.77;100.00
73085;BME280;62974;49.460;10.892;2023-01-15T09:19:50;96685.34;;;4.83;100.00
73085;BME280;62974;49.460;10.892;2023-01-15T09:22:18;96686.47;;;4.74;100.00
73085;BME280;62974;49.460;10.892;2023-01-15T09:24:45;96694.00;;;4.92;100.00
73085;BME280;62974;49.460;10.892;2023-01-15T09:27:13;96693.75;;;4.87;100.00
73085;BME280;62974;49.460;10.892;2023-01-15T09:29:41;96694.13;;;4.84;100.00
73085;BME280;62974;49.460;10.892;2023-01-15T09:32:09;96698.09;;;4.94;100.00
73085;BME280;62974;49.460;10.892;2023-01-15T09:34:36;96708.16;;;4.50;100.00
73085;BME280;62974;49.460;10.892;2023-01-15T09:37:04;96706.28;;;4.50;100.00
73085;BME280;62974;49.460;10.892;2023-01-15T09:39:31;96706.94;;;4.52;100.00
73085;BME280;62974;49.460;10.892;2023-01-15T09:42:11;96717.72;;;4.65;100.00
73085;BME280;62974;49.460;10.892;2023-01-15T09:44:57;96723.19;;;4.43;100.00
73085;BME280;62974;49.460;10.892;2023-01-15T09:47:33;96715.88;;;4.45;100.00
73085;BME280;62974;49.460;10.892;2023-01-15T09:50:13;96732.56;;;4.39;100.00
73085;BME280;62974;49.460;10.892;2023-01-15T09:55:41;96734.72;;;4.71;100.00
73085;BME280;62974;49.460;10.892;2023-01-15T09:58:12;96740.84;;;4.50;100.00
73085;BME280;62974;49.460;10.892;2023-01-15T10:00:47;96745.38;;;4.14;100.00
73085;BME280;62974;49.460;10.892;2023-01-15T10:03:23;96754.13;;;4.29;100.00
73085;BME280;62974;49.460;10.892;2023-01-15T10:05:57;96766.75;;;4.27;100.00
73085;BME280;62974;49.460;10.892;2023-01-15T10:08:31;96760.66;;;4.12;100.00
73085;BME280;62974;49.460;10.892;2023-01-15T10:11:04;96747.84;;;4.72;100.00
73085;BME280;62974;49.460;10.892;2023-01-15T10:13:38;96751.88;;;4.47;100.00
73085;BME280;62974;49.460;10.892;2023-01-15T10:16:10;96745.03;;;4.59;100.00
73085;BME280;62974;49.460;10.892;2023-01-15T10:18:39;96750.38;;;4.81;100.00
73085;BME280;62974;49.460;10.892;2023-01-15T10:21:27;96756.41;;;4.32;100.00
73085;BME280;62974;49.460;10.892;2023-01-15T10:24:00;96758.41;;;5.08;100.00
73085;BME280;62974;49.460;10.892;2023-01-15T10:26:31;96761.59;;;4.76;100.00
73085;BME280;62974;49.460;10.892;2023-01-15T10:29:02;96765.81;;;4.70;100.00
73085;BME280;62974;49.460;10.892;2023-01-15T10:31:47;96761.69;;;4.68;100.00
73085;BME280;62974;49.460;10.892;2023-01-15T10:34:46;96773.72;;;4.28;100.00
73085;BME280;62974;49.460;10.892;2023-01-15T10:37:25;96769.16;;;4.22;100.00
73085;BME280;62974;49.460;10.892;2023-01-15T10:40:08;96771.47;;;4.25;100.00
73085;BME280;62974;49.460;10.892;2023-01-15T10:42:43;96768.41;;;4.64;100.00
73085;BME280;62974;49.460;10.892;2023-01-15T10:45:19;96772.19;;;4.19;100.00
73085;BME280;62974;49.460;10.892;2023-01-15T10:47:52;96773.09;;;4.83;100.00
73085;BME280;62974;49.460;10.892;2023-01-15T10:50:23;96768.28;;;4.72;100.00
73085;BME280;62974;49.460;10.892;2023-01-15T10:53:00;96763.16;;;5.13;100.00
73085;BME280;62974;49.460;10.892;2023-01-15T10:55:32;96762.63;;;5.52;100.00
73085;BME280;62974;49.460;10.892;2023-01-15T10:58:08;96779.84;;;5.56;100.00
73085;BME280;62974;49.460;10.892;2023-01-15T11:00:38;96781.66;;;5.00;100.00
73085;BME280;62974;49.460;10.892;2023-01-15T11:03:11;96785.88;;;4.94;100.00
73085;BME280;62974;49.460;10.892;2023-01-15T11:05:42;96793.44;;;4.69;100.00
73085;BME280;62974;49.460;10.892;2023-01-15T11:08:13;96781.34;;;4.88;100.00
73085;BME280;62974;49.460;10.892;2023-01-15T11:11:12;96786.59;;;5.03;100.00
73085;BME280;62974;49.460;10.892;2023-01-15T11:13:51;96790.34;;;5.08;100.00
73085;BME280;62974;49.460;10.892;2023-01-15T11:16:37;96772.84;;;4.78;100.00
73085;BME280;62974;49.460;10.892;2023-01-15T11:19:28;96781.13;;;5.11;100.00
73085;BME280;62974;49.460;10.892;2023-01-15T11:22:08;96789.75;;;4.70;100.00
73085;BME280;62974;49.460;10.892;2023-01-15T11:24:37;96789.88;;;4.84;100.00
73085;BME280;62974;49.460;10.892;2023-01-15T11:27:14;96794.34;;;4.62;100.00
73085;BME280;62974;49.460;10.892;2023-01-15T11:29:44;96811.34;;;4.82;100.00
73085;BME280;62974;49.460;10.892;2023-01-15T11:32:19;96811.84;;;4.71;100.00
73085;BME280;62974;49.460;10.892;2023-01-15T11:34:57;96816.09;;;4.87;100.00
73085;BME280;62974;49.460;10.892;2023-01-15T11:37:26;96813.44;;;4.65;100.00
73085;BME280;62974;49.460;10.892;2023-01-15T11:39:55;96811.22;;;4.69;100.00
73085;BME280;62974;49.460;10.892;2023-01-15T11:42:22;96811.03;;;5.13;100.00
73085;BME280;62974;49.460;10.892;2023-01-15T11:45:13;96805.00;;;4.83;100.00
73085;BME280;62974;49.460;10.892;2023-01-15T11:47:58;96802.53;;;5.45;100.00
73085;BME280;62974;49.460;10.892;2023-01-15T11:50:55;96809.06;;;5.21;100.00
73085;BME280;62974;49.460;10.892;2023-01-15T11:53:26;96820.66;;;4.93;100.00
73085;BME280;62974;49.460;10.892;2023-01-15T11:55:57;96812.75;;;4.99;100.00
73085;BME280;62974;49.460;10.892;2023-01-15T11:58:28;96797.34;;;5.16;100.00
73085;BME280;62974;49.460;10.892;2023-01-15T12:00:59;96809.88;;;4.80;100.00
73085;BME280;62974;49.460;10.892;2023-01-15T12:03:29;96817.69;;;4.81;100.00
73085;BME280;62974;49.460;10.892;2023-01-15T12:06:01;96819.00;;;4.92;100.00
73085;BME280;62974;49.460;10.892;2023-01-15T12:08:46;96823.69;;;4.90;100.00
73085;BME280;62974;49.460;10.892;2023-01-15T12:11:24;96832.25;;;4.49;100.00
73085;BME280;62974;49.460;10.892;2023-01-15T12:14:08;96846.78;;;4.68;100.00
73085;BME280;62974;49.460;10.892;2023-01-15T12:16:47;96858.84;;;4.49;100.00
73085;BME280;62974;49.460;10.892;2023-01-15T12:19:20;96854.31;;;4.64;100.00
73085;BME280;62974;49.460;10.892;2023-01-15T12:22:12;96849.94;;;4.78;100.00
73085;BME280;62974;49.460;10.892;2023-01-15T12:28:03;96850.94;;;4.56;100.00
73085;BME280;62974;49.460;10.892;2023-01-15T12:30:39;96845.91;;;4.61;100.00
73085;BME280;62974;49.460;10.892;2023-01-15T12:33:17;96852.00;;;4.76;100.00
73085;BME280;62974;49.460;10.892;2023-01-15T12:35:51;96854.69;;;4.97;100.00
73085;BME280;62974;49.460;10.892;2023-01-15T12:38:31;96855.22;;;4.71;100.00
73085;BME280;62974;49.460;10.892;2023-01-15T12:41:07;96835.81;;;5.13;100.00
73085;BME280;62974;49.460;10.892;2023-01-15T12:43:36;96851.44;;;4.81;100.00
73085;BME280;62974;49.460;10.892;2023-01-15T12:46:25;96861.06;;;4.16;100.00
73085;BME280;62974;49.460;10.892;2023-01-15T12:49:00;96858.13;;;4.41;100.00
73085;BME280;62974;49.460;10.892;2023-01-15T12:51:34;96858.22;;;4.33;100.00
73085;BME280;62974;49.460;10.892;2023-01-15T12:54:06;96863.25;;;4.78;100.00
73085;BME280;62974;49.460;10.892;2023-01-15T12:56:46;96872.38;;;4.54;100.00
73085;BME280;62974;49.460;10.892;2023-01-15T12:59:18;96873.44;;;4.89;100.00
73085;BME280;62974;49.460;10.892;2023-01-15T13:01:54;96889.94;;;4.85;100.00
73085;BME280;62974;49.460;10.892;2023-01-15T13:04:29;96906.22;;;4.60;100.00
73085;BME280;62974;49.460;10.892;2023-01-15T13:07:03;96928.53;;;3.78;100.00
73085;BME280;62974;49.460;10.892;2023-01-15T13:09:39;96942.16;;;3.29;100.00
73085;BME280;62974;49.460;10.892;2023-01-15T13:12:14;96946.31;;;3.01;100.00
73085;BME280;62974;49.460;10.892;2023-01-15T13:14:42;96944.88;;;3.21;100.00
73085;BME280;62974;49.460;10.892;2023-01-15T13:17:20;96958.31;;;2.89;100.00
73085;BME280;62974;49.460;10.892;2023-01-15T13:20:04;96959.19;;;3.12;100.00
73085;BME280;62974;49.460;10.892;2023-01-15T13:22:41;96957.16;;;4.35;100.00
73085;BME280;62974;49.460;10.892;2023-01-15T13:25:30;96969.28;;;2.86;100.00